createdAt,value
2018-05-06T00:01:03.411Z,12.57
2018-05-06T00:03:30.464Z,13.60
2018-05-06T00:05:57.484Z,13.37
2018-05-06T00:08:24.535Z,13.00
2018-05-06T00:10:51.540Z,13.13
2018-05-06T00:13:19.419Z,13.20
2018-05-06T00:15:47.181Z,12.77
2018-05-06T00:18:14.196Z,15.13
2018-05-06T00:20:41.210Z,13.97
2018-05-06T00:23:08.264Z,13.90
2018-05-06T00:25:35.313Z,13.07
2018-05-06T00:28:02.348Z,15.00
2018-05-06T00:30:29.366Z,14.63
2018-05-06T00:32:56.459Z,14.90
2018-05-06T00:35:23.460Z,15.23
2018-05-06T00:37:51.226Z,12.93
2018-05-06T00:40:18.244Z,14.17
2018-05-06T00:42:45.380Z,13.87
2018-05-06T00:45:12.393Z,13.60
2018-05-06T00:47:40.125Z,14.40
2018-05-06T00:50:07.235Z,14.90
2018-05-06T00:52:34.255Z,12.87
2018-05-06T00:55:01.273Z,13.40
2018-05-06T00:57:28.311Z,13.90
2018-05-06T00:59:56.074Z,13.27
2018-05-06T01:02:23.083Z,14.50
2018-05-06T01:04:50.096Z,13.40
2018-05-06T01:07:17.139Z,13.40
2018-05-06T01:09:44.901Z,14.30
2018-05-06T01:12:11.908Z,15.03
2018-05-06T01:14:39.024Z,14.23
2018-05-06T01:17:06.721Z,13.27
2018-05-06T01:19:33.729Z,14.23
2018-05-06T01:22:00.749Z,14.43
2018-05-06T01:24:28.562Z,13.87
2018-05-06T01:26:55.559Z,13.80
2018-05-06T01:29:23.313Z,13.20
2018-05-06T01:31:50.376Z,12.67
2018-05-06T01:34:18.180Z,14.10
2018-05-06T01:36:45.208Z,14.43
2018-05-06T01:39:12.220Z,13.63
2018-05-06T01:41:39.206Z,13.77
2018-05-06T01:44:06.250Z,12.90
2018-05-06T01:46:33.280Z,13.57
2018-05-06T01:49:01.003Z,13.60
2018-05-06T01:51:28.037Z,12.73
2018-05-06T01:53:55.060Z,12.17
2018-05-06T01:56:22.077Z,12.77
2018-05-06T01:58:49.818Z,12.63
2018-05-06T02:01:17.604Z,12.90
2018-05-06T02:03:44.684Z,13.33
2018-05-06T02:06:11.666Z,12.97
2018-05-06T02:08:38.684Z,12.80
2018-05-06T02:11:05.710Z,13.50
2018-05-06T02:13:33.521Z,12.43
2018-05-06T02:16:00.537Z,13.13
2018-05-06T02:18:27.604Z,11.60
2018-05-06T02:20:54.603Z,13.20
2018-05-06T02:23:21.707Z,14.00
2018-05-06T02:25:48.715Z,12.20
2018-05-06T02:28:15.741Z,12.80
2018-05-06T02:30:42.733Z,12.40
2018-05-06T02:33:09.788Z,14.20
2018-05-06T02:35:36.800Z,13.13
2018-05-06T02:38:03.847Z,12.23
2018-05-06T02:40:30.856Z,12.40
2018-05-06T02:42:57.840Z,13.00
2018-05-06T02:45:24.856Z,12.10
2018-05-06T02:47:51.849Z,12.00
2018-05-06T02:50:18.880Z,14.07
2018-05-06T02:52:45.904Z,12.83
2018-05-06T02:55:13.664Z,12.80
2018-05-06T02:57:41.396Z,12.50
2018-05-06T03:00:08.448Z,11.73
2018-05-06T03:02:35.476Z,12.97
2018-05-06T03:05:02.477Z,12.57
2018-05-06T03:07:29.515Z,11.80
2018-05-06T03:09:57.252Z,13.17
2018-05-06T03:12:24.252Z,12.23
2018-05-06T03:14:51.283Z,11.57
2018-05-06T03:17:19.020Z,11.30
2018-05-06T03:19:46.016Z,11.57
2018-05-06T03:22:12.991Z,12.50
2018-05-06T03:24:40.020Z,11.23
2018-05-06T03:27:07.032Z,9.87
2018-05-06T03:29:34.808Z,13.43
2018-05-06T03:32:01.829Z,12.00
2018-05-06T03:34:29.646Z,11.03
2018-05-06T03:36:56.656Z,12.70
2018-05-06T03:39:24.392Z,11.57
2018-05-06T03:41:51.401Z,12.20
2018-05-06T03:44:18.447Z,12.07
2018-05-06T03:46:45.473Z,11.80
2018-05-06T03:49:12.504Z,12.60
2018-05-06T03:51:40.360Z,11.77
2018-05-06T03:54:07.440Z,11.93
2018-05-06T03:59:55.467Z,11.03
2018-05-06T04:02:30.740Z,11.70
2018-05-06T04:04:57.896Z,12.57
2018-05-06T04:07:25.732Z,11.43
2018-05-06T04:09:52.779Z,11.90
2018-05-06T04:12:19.809Z,11.57
2018-05-06T04:14:46.825Z,11.77
2018-05-06T04:17:13.841Z,11.40
2018-05-06T04:19:40.880Z,11.50
2018-05-06T04:22:07.915Z,12.50
2018-05-06T04:24:35.708Z,11.70
2018-05-06T04:27:02.717Z,11.27
2018-05-06T04:29:30.493Z,11.53
2018-05-06T04:31:58.260Z,10.90
2018-05-06T04:34:26.057Z,11.50
2018-05-06T04:36:53.057Z,11.97
2018-05-06T04:39:20.825Z,10.70
2018-05-06T04:41:48.589Z,11.70
2018-05-06T04:44:16.448Z,12.00
2018-05-06T04:46:43.452Z,12.67
2018-05-06T04:49:10.447Z,12.33
2018-05-06T04:51:37.447Z,10.50
2018-05-06T04:54:04.513Z,12.47
2018-05-06T04:56:31.522Z,11.00
2018-05-06T04:58:58.778Z,12.70
2018-05-06T05:01:25.777Z,13.73
2018-05-06T05:03:53.596Z,12.57
2018-05-06T05:06:20.615Z,12.07
2018-05-06T05:08:48.375Z,12.00
2018-05-06T05:11:15.420Z,13.70
2018-05-06T05:13:42.513Z,13.07
2018-05-06T05:16:09.512Z,12.60
2018-05-06T05:18:36.525Z,12.70
2018-05-06T05:21:03.588Z,13.00
2018-05-06T05:23:30.677Z,14.07
2018-05-06T05:25:57.706Z,13.30
2018-05-06T05:28:24.713Z,14.33
2018-05-06T05:30:51.748Z,14.57
2018-05-06T05:33:18.774Z,12.13
2018-05-06T05:35:45.776Z,14.27
2018-05-06T05:38:13.549Z,13.27
2018-05-06T05:40:41.303Z,14.20
2018-05-06T05:43:08.393Z,14.73
2018-05-06T05:45:35.441Z,13.97
2018-05-06T05:48:03.172Z,13.93
2018-05-06T05:50:30.929Z,13.30
2018-05-06T05:52:58.736Z,14.17
2018-05-06T05:55:25.741Z,14.53
2018-05-06T05:57:52.752Z,14.23
2018-05-06T06:00:19.824Z,14.00
2018-05-06T06:02:46.933Z,13.47
2018-05-06T06:05:13.899Z,15.23
2018-05-06T06:07:40.981Z,13.30
2018-05-06T06:10:07.965Z,14.27
2018-05-06T06:12:35.029Z,13.27
2018-05-06T06:15:02.051Z,14.37
2018-05-06T06:17:29.057Z,13.37
2018-05-06T06:19:56.064Z,14.90
2018-05-06T06:22:23.065Z,15.10
2018-05-06T06:24:50.824Z,14.13
2018-05-06T06:27:18.582Z,14.37
2018-05-06T06:29:45.587Z,14.87
2018-05-06T06:32:12.612Z,15.60
2018-05-06T06:34:39.668Z,14.70
2018-05-06T06:37:06.676Z,15.10
2018-05-06T06:39:34.413Z,14.83
2018-05-06T06:42:01.424Z,15.27
2018-05-06T06:44:28.489Z,14.90
2018-05-06T06:46:55.510Z,16.40
2018-05-06T06:49:22.540Z,14.90
2018-05-06T06:51:49.550Z,15.10
2018-05-06T06:54:16.649Z,15.83
2018-05-06T06:56:43.729Z,14.33
2018-05-06T06:59:10.760Z,14.50
2018-05-06T07:01:37.867Z,14.47
2018-05-06T07:04:05.672Z,14.60
2018-05-06T07:06:32.684Z,15.20
2018-05-06T07:09:00.473Z,13.37
2018-05-06T07:11:27.509Z,14.10
2018-05-06T07:13:54.605Z,15.07
2018-05-06T07:16:21.617Z,14.50
2018-05-06T07:18:48.606Z,13.70
2018-05-06T07:21:15.646Z,14.17
2018-05-06T07:23:42.777Z,13.10
2018-05-06T07:26:09.784Z,12.97
2018-05-06T07:28:36.816Z,12.50
2018-05-06T07:31:03.876Z,12.70
2018-05-06T07:33:31.695Z,10.77
2018-05-06T07:35:58.695Z,12.17
2018-05-06T07:38:26.452Z,10.43
2018-05-06T07:40:54.184Z,10.77
2018-05-06T07:43:21.191Z,9.70
2018-05-06T07:45:48.213Z,11.23
2018-05-06T07:48:15.231Z,11.20
2018-05-06T07:50:42.272Z,11.60
2018-05-06T07:53:09.268Z,13.33
2018-05-06T07:55:36.312Z,10.20
2018-05-06T07:58:03.325Z,10.47
2018-05-06T08:00:30.374Z,11.17
2018-05-06T08:02:58.210Z,8.73
2018-05-06T08:05:25.246Z,8.90
2018-05-06T08:07:52.252Z,7.90
2018-05-06T08:10:20.005Z,7.90
2018-05-06T08:12:47.807Z,7.13
2018-05-06T08:15:14.851Z,6.70
2018-05-06T08:17:41.856Z,7.97
2018-05-06T08:20:09.626Z,9.53
2018-05-06T08:22:37.449Z,9.60
2018-05-06T08:25:04.506Z,8.90
2018-05-06T08:27:31.816Z,8.77
2018-05-06T08:29:59.117Z,9.10
2018-05-06T08:32:26.301Z,8.70
2018-05-06T08:34:53.361Z,8.60
2018-05-06T08:37:20.425Z,7.70
2018-05-06T08:39:47.460Z,8.07
2018-05-06T08:42:14.518Z,9.17
2018-05-06T08:44:41.772Z,9.17
2018-05-06T08:47:09.681Z,9.13
2018-05-06T08:49:37.540Z,8.07
2018-05-06T08:52:04.638Z,9.80
2018-05-06T08:54:31.777Z,9.13
2018-05-06T08:56:59.548Z,10.47
2018-05-06T08:59:26.632Z,9.03
2018-05-06T09:01:54.523Z,9.63
2018-05-06T09:04:21.705Z,9.07
2018-05-06T09:06:49.777Z,10.10
2018-05-06T09:09:17.024Z,9.40
2018-05-06T09:11:44.115Z,8.53
2018-05-06T09:14:11.184Z,9.60
2018-05-06T09:16:38.240Z,11.10
2018-05-06T09:19:05.309Z,10.83
2018-05-06T09:21:33.096Z,9.67
2018-05-06T09:24:00.468Z,9.80
2018-05-06T09:26:28.325Z,8.30
2018-05-06T09:28:55.340Z,9.20
2018-05-06T09:31:22.596Z,9.03
2018-05-06T09:33:49.776Z,8.73
2018-05-06T09:36:17.536Z,7.70
2018-05-06T09:38:45.400Z,8.40
2018-05-06T09:41:12.369Z,12.63
2018-05-06T09:43:39.764Z,10.57
2018-05-06T09:46:07.650Z,9.10
2018-05-06T09:48:35.679Z,7.87
2018-05-06T09:53:36.801Z,8.90
2018-05-06T09:56:03.886Z,8.33
2018-05-06T09:58:30.906Z,8.70
2018-05-06T10:00:58.073Z,9.13
2018-05-06T10:03:25.248Z,8.23
2018-05-06T10:05:52.394Z,7.40
2018-05-06T10:08:20.306Z,8.33
2018-05-06T10:10:47.292Z,7.60
2018-05-06T10:13:14.360Z,7.37
2018-05-06T10:15:41.677Z,8.50
2018-05-06T10:18:08.742Z,8.00
2018-05-06T10:20:35.764Z,7.63
2018-05-06T10:23:03.576Z,7.17
2018-05-06T10:25:30.630Z,7.60
2018-05-06T10:27:57.693Z,7.90
2018-05-06T10:30:24.627Z,7.83
2018-05-06T10:32:51.643Z,8.03
2018-05-06T10:35:18.627Z,8.13
2018-05-06T10:37:45.653Z,9.43
2018-05-06T10:40:12.709Z,8.10
2018-05-06T10:42:40.573Z,7.43
2018-05-06T10:45:07.599Z,7.57
2018-05-06T10:47:34.600Z,7.63
2018-05-06T10:50:01.687Z,7.33
2018-05-06T10:52:28.721Z,7.90
2018-05-06T10:54:56.453Z,7.67
2018-05-06T10:57:24.215Z,7.03
2018-05-06T10:59:51.991Z,6.93
2018-05-06T11:02:19.751Z,7.00
2018-05-06T11:04:47.500Z,6.70
2018-05-06T11:07:14.568Z,5.93
2018-05-06T11:09:41.560Z,6.40
2018-05-06T11:12:08.596Z,6.17
2018-05-06T11:14:35.644Z,6.70
2018-05-06T11:17:02.698Z,6.03
2018-05-06T11:19:29.753Z,6.70
2018-05-06T11:21:56.776Z,7.87
2018-05-06T11:24:23.832Z,6.67
2018-05-06T11:26:50.886Z,6.80
2018-05-06T11:29:17.884Z,6.60
2018-05-06T11:31:45.468Z,6.57
2018-05-06T11:34:13.245Z,6.40
2018-05-06T11:36:40.213Z,6.57
2018-05-06T11:39:07.239Z,7.17
2018-05-06T11:41:34.969Z,6.43
2018-05-06T11:44:02.788Z,6.70
2018-05-06T11:46:30.565Z,6.80
2018-05-06T11:48:57.576Z,7.03
2018-05-06T11:51:24.624Z,6.47
2018-05-06T11:53:51.695Z,6.47
2018-05-06T11:56:18.783Z,6.80
2018-05-06T11:58:45.776Z,7.10
2018-05-06T12:01:12.796Z,7.07
2018-05-06T12:03:40.583Z,6.90
2018-05-06T12:06:07.960Z,6.10
2018-05-06T12:08:35.119Z,7.00
2018-05-06T12:11:02.131Z,5.37
2018-05-06T12:13:29.175Z,6.43
2018-05-06T12:15:56.229Z,6.80
2018-05-06T12:18:23.236Z,5.63
2018-05-06T12:20:51.023Z,5.30
2018-05-06T12:23:18.115Z,6.43
2018-05-06T12:25:45.899Z,4.83
2018-05-06T12:28:12.913Z,4.10
2018-05-06T12:30:39.917Z,4.37
2018-05-06T12:33:07.745Z,4.83
2018-05-06T12:35:34.744Z,4.20
2018-05-06T12:38:01.792Z,4.10
2018-05-06T12:40:28.813Z,4.33
2018-05-06T12:42:56.627Z,3.73
2018-05-06T12:45:23.695Z,4.50
2018-05-06T12:47:50.763Z,4.13
2018-05-06T12:50:17.839Z,3.83
2018-05-06T12:52:44.945Z,4.47
2018-05-06T12:55:12.718Z,5.03
2018-05-06T12:57:39.731Z,5.40
2018-05-06T13:00:07.000Z,4.30
2018-05-06T13:02:34.033Z,3.47
2018-05-06T13:05:01.064Z,3.43
2018-05-06T13:07:28.089Z,4.07
2018-05-06T13:09:55.092Z,4.50
2018-05-06T13:12:22.096Z,3.90
2018-05-06T13:14:49.103Z,3.27
2018-05-06T13:17:16.863Z,3.90
2018-05-06T13:19:43.873Z,4.23
2018-05-06T13:22:10.867Z,4.60
2018-05-06T13:24:38.669Z,3.93
2018-05-06T13:27:05.920Z,3.73
2018-05-06T13:29:32.979Z,3.90
2018-05-06T13:32:00.154Z,4.10
2018-05-06T13:34:27.215Z,3.80
2018-05-06T13:36:54.984Z,3.30
2018-05-06T13:39:21.853Z,3.10
2018-05-06T13:41:48.930Z,3.77
2018-05-06T13:44:16.020Z,3.40
2018-05-06T13:46:43.895Z,3.83
2018-05-06T13:49:10.989Z,3.90
2018-05-06T13:51:38.116Z,3.73
2018-05-06T13:54:05.335Z,4.00
2018-05-06T13:56:32.381Z,6.17
2018-05-06T13:59:00.252Z,4.33
2018-05-06T14:01:27.440Z,4.07
2018-05-06T14:03:54.448Z,5.00
2018-05-06T14:06:22.423Z,4.40
2018-05-06T14:08:49.678Z,7.10
2018-05-06T14:11:17.637Z,3.80
2018-05-06T14:13:44.849Z,3.40
2018-05-06T14:16:12.106Z,4.10
2018-05-06T14:18:39.228Z,4.07
2018-05-06T14:21:06.381Z,4.10
2018-05-06T14:23:33.573Z,3.87
2018-05-06T14:26:00.734Z,3.20
2018-05-06T14:28:27.738Z,3.50
2018-05-06T14:30:54.755Z,3.50
2018-05-06T14:33:21.848Z,4.13
2018-05-06T14:35:48.936Z,3.77
2018-05-06T14:38:16.691Z,4.20
2018-05-06T14:40:43.699Z,4.73
2018-05-06T14:43:11.164Z,3.97
2018-05-06T14:45:38.965Z,14.23
2018-05-06T14:48:15.085Z,3.23
2018-05-06T14:50:42.112Z,4.43
2018-05-06T14:53:09.180Z,5.00
2018-05-06T14:55:36.212Z,4.17
2018-05-06T14:58:03.282Z,4.50
2018-05-06T15:00:30.280Z,3.90
2018-05-06T15:02:57.388Z,4.50
2018-05-06T15:05:24.424Z,3.60
2018-05-06T15:07:51.433Z,3.40
2018-05-06T15:10:18.547Z,4.50
2018-05-06T15:12:45.757Z,3.90
2018-05-06T15:15:12.796Z,3.70
2018-05-06T15:17:39.845Z,3.27
2018-05-06T15:20:06.869Z,3.30
2018-05-06T15:22:33.952Z,3.70
2018-05-06T15:25:01.087Z,3.60
2018-05-06T15:27:28.824Z,4.20
2018-05-06T15:29:56.964Z,3.53
2018-05-06T15:32:24.875Z,3.60
2018-05-06T15:34:51.916Z,3.93
2018-05-06T15:37:18.931Z,3.57
2018-05-06T15:39:45.973Z,2.63
2018-05-06T15:42:13.028Z,4.00
2018-05-06T15:44:40.188Z,3.80
2018-05-06T15:47:07.965Z,3.37
2018-05-06T15:49:34.997Z,3.40
2018-05-06T15:52:02.061Z,3.87
2018-05-06T15:54:29.882Z,3.70
2018-05-06T15:56:56.929Z,3.00
2018-05-06T15:59:23.951Z,3.13
2018-05-06T16:02:09.509Z,3.00
2018-05-06T16:04:37.635Z,3.37
2018-05-06T16:07:04.700Z,3.97
2018-05-06T16:09:31.753Z,8.43
2018-05-06T16:11:59.533Z,4.63
2018-05-06T16:14:27.382Z,3.70
2018-05-06T16:16:54.484Z,3.40
2018-05-06T16:19:22.241Z,3.43
2018-05-06T16:21:49.985Z,3.20
2018-05-06T16:24:18.815Z,2.97
2018-05-06T16:26:45.990Z,3.10
2018-05-06T16:29:12.883Z,3.10
2018-05-06T16:31:40.641Z,2.23
2018-05-06T16:34:08.446Z,2.73
2018-05-06T16:36:35.487Z,2.80
2018-05-06T16:39:02.595Z,2.93
2018-05-06T16:41:29.576Z,3.17
2018-05-06T16:43:56.639Z,2.90
2018-05-06T16:46:23.635Z,3.40
2018-05-06T16:48:51.387Z,3.00
2018-05-06T16:51:19.147Z,3.10
2018-05-06T16:53:46.280Z,4.40
2018-05-06T16:56:13.311Z,3.03
2018-05-06T16:58:40.369Z,3.00
2018-05-06T17:01:07.412Z,3.40
2018-05-06T17:03:34.560Z,2.57
2018-05-06T17:06:01.633Z,3.20
2018-05-06T17:08:29.438Z,2.73
2018-05-06T17:10:56.497Z,5.03
2018-05-06T17:13:23.572Z,3.10
2018-05-06T17:15:50.621Z,2.90
2018-05-06T17:18:17.665Z,4.40
2018-05-06T17:20:44.677Z,3.90
2018-05-06T17:23:11.766Z,4.03
2018-05-06T17:25:38.789Z,3.40
2018-05-06T17:28:05.846Z,3.40
2018-05-06T17:30:32.896Z,4.10
2018-05-06T17:32:59.948Z,4.17
2018-05-06T17:35:27.009Z,3.47
2018-05-06T17:37:54.045Z,3.67
2018-05-06T17:40:21.072Z,3.83
2018-05-06T17:42:48.193Z,4.03
2018-05-06T17:45:15.929Z,3.60
2018-05-06T17:47:43.718Z,3.97
2018-05-06T17:50:10.851Z,3.33
2018-05-06T17:52:38.025Z,3.20
2018-05-06T17:55:05.085Z,3.00
2018-05-06T17:57:33.141Z,3.43
2018-05-06T18:00:00.257Z,3.43
2018-05-06T18:02:27.259Z,3.23
2018-05-06T18:04:54.332Z,3.30
2018-05-06T18:07:21.342Z,3.40
2018-05-06T18:09:48.548Z,3.90
2018-05-06T18:12:15.557Z,4.57
2018-05-06T18:14:42.745Z,3.70
2018-05-06T18:17:09.774Z,4.17
2018-05-06T18:19:36.801Z,5.40
2018-05-06T18:22:03.922Z,4.40
2018-05-06T18:24:32.685Z,5.23
2018-05-06T18:27:00.452Z,4.00
2018-05-06T18:29:27.487Z,5.10
2018-05-06T18:31:54.508Z,5.00
2018-05-06T18:34:21.561Z,5.70
2018-05-06T18:36:48.585Z,5.67
2018-05-06T18:39:15.578Z,5.50
2018-05-06T18:41:42.595Z,5.00
2018-05-06T18:44:09.621Z,6.33
2018-05-06T18:46:36.617Z,5.00
2018-05-06T18:49:03.606Z,4.70
2018-05-06T18:51:31.372Z,3.77
2018-05-06T18:53:59.159Z,3.90
2018-05-06T18:56:26.168Z,3.40
2018-05-06T18:58:53.929Z,3.70
2018-05-06T19:01:21.652Z,4.00
2018-05-06T19:03:48.718Z,4.20
2018-05-06T19:06:16.492Z,4.77
2018-05-06T19:08:44.237Z,4.63
2018-05-06T19:11:11.268Z,5.00
2018-05-06T19:13:38.303Z,6.83
2018-05-06T19:16:05.333Z,5.23
2018-05-06T19:18:32.333Z,5.47
2018-05-06T19:20:59.360Z,5.90
2018-05-06T19:23:26.393Z,6.40
2018-05-06T19:25:53.398Z,6.30
2018-05-06T19:28:20.425Z,5.57
2018-05-06T19:30:47.460Z,5.80
2018-05-06T19:33:14.600Z,4.60
2018-05-06T19:35:41.642Z,4.80
2018-05-06T19:38:08.684Z,4.77
2018-05-06T19:40:36.443Z,4.17
2018-05-06T19:43:03.515Z,5.40
2018-05-06T19:45:31.313Z,3.87
2018-05-06T19:47:59.065Z,4.03
2018-05-06T19:50:26.820Z,4.87
2018-05-06T19:52:54.655Z,4.77
2018-05-06T19:55:21.685Z,4.90
2018-05-06T19:57:48.719Z,4.63
2018-05-06T20:00:15.718Z,4.60
2018-05-06T20:02:42.823Z,4.30
2018-05-06T20:05:09.863Z,5.10
2018-05-06T20:07:36.900Z,4.90
2018-05-06T20:10:04.660Z,4.80
2018-05-06T20:12:31.684Z,5.00
2018-05-06T20:14:58.670Z,5.00
2018-05-06T20:17:26.145Z,4.97
2018-05-06T20:19:53.412Z,4.30
2018-05-06T20:22:20.524Z,4.90
2018-05-06T20:24:47.600Z,5.30
2018-05-06T20:27:14.583Z,4.70
2018-05-06T20:29:41.607Z,4.10
2018-05-06T20:32:08.615Z,4.40
2018-05-06T20:34:35.809Z,4.10
2018-05-06T20:37:02.997Z,4.23
2018-05-06T20:39:30.810Z,3.90
2018-05-06T20:41:57.833Z,4.27
2018-05-06T20:44:24.889Z,4.30
2018-05-06T20:46:51.905Z,4.93
2018-05-06T20:49:18.899Z,4.90
2018-05-06T20:51:45.901Z,5.10
2018-05-06T20:54:12.993Z,5.80
2018-05-06T20:56:40.783Z,4.97
2018-05-06T20:59:07.802Z,5.20
2018-05-06T21:01:34.900Z,4.73
2018-05-06T21:04:02.033Z,5.17
2018-05-06T21:06:29.031Z,5.20
2018-05-06T21:08:56.032Z,4.57
2018-05-06T21:11:23.800Z,5.13
2018-05-06T21:13:51.613Z,4.47
2018-05-06T21:16:19.371Z,4.40
2018-05-06T21:18:46.409Z,5.77
2018-05-06T21:21:13.470Z,4.97
2018-05-06T21:23:40.522Z,4.70
2018-05-06T21:26:07.533Z,4.03
2018-05-06T21:28:35.323Z,4.90
2018-05-06T21:31:02.332Z,5.67
2018-05-06T21:33:30.176Z,4.57
2018-05-06T21:35:58.026Z,4.93
2018-05-06T21:38:25.008Z,4.70
2018-05-06T21:40:52.756Z,5.03
2018-05-06T21:43:19.912Z,5.00
2018-05-06T21:45:47.672Z,4.63
2018-05-06T21:48:14.684Z,5.27
2018-05-06T21:50:41.713Z,4.10
2018-05-06T21:53:08.773Z,5.03
2018-05-06T21:55:35.802Z,4.70
2018-05-06T21:58:02.819Z,4.27
2018-05-06T22:00:29.809Z,4.33
2018-05-06T22:02:56.856Z,5.37
2018-05-06T22:05:23.944Z,4.97
2018-05-06T22:07:50.941Z,4.77
2018-05-06T22:10:18.119Z,4.23
2018-05-06T22:12:45.157Z,6.00
2018-05-06T22:15:12.175Z,5.30
2018-05-06T22:17:39.152Z,4.87
2018-05-06T22:20:06.172Z,4.37
2018-05-06T22:22:33.201Z,4.17
2018-05-06T22:25:00.964Z,4.77
2018-05-06T22:27:28.708Z,4.60
2018-05-06T22:29:55.730Z,4.43
2018-05-06T22:32:22.784Z,5.47
2018-05-06T22:34:49.896Z,4.27
2018-05-06T22:37:16.911Z,4.00
2018-05-06T22:39:43.892Z,4.37
2018-05-06T22:42:10.894Z,4.37
2018-05-06T22:44:37.922Z,4.23
2018-05-06T22:47:04.917Z,4.13
2018-05-06T22:49:31.956Z,4.70
2018-05-06T22:51:59.701Z,3.77
2018-05-06T22:54:26.842Z,4.00
2018-05-06T22:56:53.877Z,4.20
2018-05-06T22:59:20.900Z,4.60
2018-05-06T23:01:47.971Z,4.00
2018-05-06T23:04:15.100Z,4.70
2018-05-06T23:06:42.088Z,5.10
2018-05-06T23:09:09.110Z,4.20
2018-05-06T23:11:36.140Z,4.13
2018-05-06T23:14:03.182Z,4.13
2018-05-06T23:16:30.156Z,4.00
2018-05-06T23:18:57.174Z,4.00
2018-05-06T23:21:24.201Z,3.70
2018-05-06T23:23:51.992Z,3.40
2018-05-06T23:26:19.004Z,4.13
2018-05-06T23:28:46.750Z,4.13
2018-05-06T23:31:14.524Z,4.13
2018-05-06T23:33:41.608Z,4.43
2018-05-06T23:36:08.617Z,3.23
2018-05-06T23:38:36.357Z,3.73
2018-05-06T23:41:03.356Z,3.47
2018-05-06T23:43:30.435Z,4.90
2018-05-06T23:45:57.501Z,3.57
2018-05-06T23:48:24.515Z,4.23
2018-05-06T23:50:51.541Z,4.30
2018-05-06T23:53:18.596Z,4.10
2018-05-06T23:55:45.637Z,4.07
2018-05-06T23:58:12.647Z,3.83
